Time;durP1;ratioP1;P1;durP2;ratioP2;P2;SDS_P1;SDS_P2;PMS_P1;PMS_P2;Temp;Humidity;BMP_temperature;BMP_pressure;BME280_temperature;BME280_humidity;BME280_pressure;Samples;Min_cycle;Max_cycle;Signal;HPM_P1;HPM_P2
2023/01/26 00:00:43;;;;;;;17.23;14.60;;;;;;;;;;5054223;28;20407;-59
2023/01/26 00:03:09;;;;;;;20.63;15.63;;;;;;;;;;5054409;28;20049;-59
2023/01/26 00:05:38;;;;;;;26.13;16.67;;;;;;;;;;5053935;28;20112;-59
2023/01/26 00:08:04;;;;;;;20.77;13.50;;;;;;;;;;5054028;28;20100;-57
2023/01/26 00:10:30;;;;;;;20.93;17.10;;;;;;;;;;5053504;28;20076;-59
2023/01/26 00:12:56;;;;;;;19.30;13.67;;;;;;;;;;5053066;28;20087;-59
2023/01/26 00:15:22;;;;;;;21.80;16.20;;;;;;;;;;5053835;28;20359;-59
2023/01/26 00:17:51;;;;;;;19.67;13.93;;;;;;;;;;5053252;28;20105;-59
2023/01/26 00:20:17;;;;;;;19.80;13.23;;;;;;;;;;5053985;28;20406;-59
2023/01/26 00:22:43;;;;;;;20.13;13.63;;;;;;;;;;5053496;28;20036;-59
2023/01/26 00:25:10;;;;;;;22.30;18.03;;;;;;;;;;5053754;28;20021;-57
2023/01/26 00:27:36;;;;;;;21.27;14.17;;;;;;;;;;5057094;28;20033;-57
2023/01/26 00:30:02;;;;;;;15.83;14.23;;;;;;;;;;5057373;28;20111;-59
2023/01/26 00:32:28;;;;;;;19.30;12.33;;;;;;;;;;5057803;28;20175;-59
2023/01/26 00:34:54;;;;;;;16.50;13.90;;;;;;;;;;5057676;28;20475;-59
2023/01/26 00:37:20;;;;;;;21.90;15.80;;;;;;;;;;5057243;28;20031;-58
2023/01/26 00:39:46;;;;;;;31.27;18.50;;;;;;;;;;5057685;28;20078;-59
2023/01/26 00:42:12;;;;;;;19.83;16.10;;;;;;;;;;5057358;28;20033;-59
2023/01/26 00:44:39;;;;;;;25.57;17.27;;;;;;;;;;5057771;28;20120;-59
2023/01/26 00:47:06;;;;;;;26.07;16.07;;;;;;;;;;5057410;28;20025;-58
2023/01/26 00:49:32;;;;;;;23.30;17.37;;;;;;;;;;5057623;28;20154;-59
2023/01/26 00:51:58;;;;;;;21.10;15.33;;;;;;;;;;5056981;28;20068;-59
2023/01/26 00:54:24;;;;;;;20.60;15.17;;;;;;;;;;5055910;28;20455;-59
2023/01/26 00:56:50;;;;;;;16.77;14.00;;;;;;;;;;5057409;28;20036;-59
2023/01/26 00:59:16;;;;;;;23.67;17.50;;;;;;;;;;5056949;28;20459;-59
2023/01/26 01:01:43;;;;;;;26.90;17.53;;;;;;;;;;5057274;28;20104;-59
2023/01/26 01:04:09;;;;;;;23.13;15.53;;;;;;;;;;5057273;28;20531;-59
2023/01/26 01:06:35;;;;;;;22.53;15.07;;;;;;;;;;5057320;28;20108;-59
2023/01/26 01:09:01;;;;;;;18.30;14.50;;;;;;;;;;5056644;28;20110;-59
2023/01/26 01:11:27;;;;;;;18.07;13.27;;;;;;;;;;5056609;28;20025;-58
2023/01/26 01:13:53;;;;;;;22.13;17.03;;;;;;;;;;5056610;28;20048;-59
2023/01/26 01:16:19;;;;;;;20.73;13.30;;;;;;;;;;5056908;28;20100;-59
2023/01/26 01:18:45;;;;;;;18.07;13.17;;;;;;;;;;5056575;28;20087;-59
2023/01/26 01:21:13;;;;;;;21.50;14.73;;;;;;;;;;5056422;28;20025;-59
2023/01/26 01:23:39;;;;;;;16.43;14.77;;;;;;;;;;5056414;28;20102;-59
2023/01/26 01:26:05;;;;;;;22.57;16.33;;;;;;;;;;5056741;28;20096;-60
2023/01/26 01:28:32;;;;;;;25.77;17.13;;;;;;;;;;5056345;28;20025;-59
2023/01/26 01:30:58;;;;;;;20.63;17.07;;;;;;;;;;5057103;28;20100;-60
2023/01/26 01:33:24;;;;;;;24.17;17.10;;;;;;;;;;5056413;28;20525;-57
2023/01/26 01:36:00;;;;;;;19.87;15.83;;;;;;;;;;5056778;28;20033;-59
2023/01/26 01:38:27;;;;;;;23.87;15.50;;;;;;;;;;5055408;28;20467;-59
2023/01/26 01:40:53;;;;;;;21.57;13.67;;;;;;;;;;5056603;28;20082;-59
2023/01/26 01:43:20;;;;;;;22.43;15.10;;;;;;;;;;5055821;28;20479;-60
2023/01/26 01:45:47;;;;;;;17.60;13.30;;;;;;;;;;5056394;28;20025;-59
2023/01/26 01:48:19;;;;;;;21.07;15.07;;;;;;;;;;5055965;28;20414;-59
2023/01/26 01:50:45;;;;;;;19.53;13.33;;;;;;;;;;5055857;28;20066;-59
2023/01/26 01:53:13;;;;;;;19.17;14.67;;;;;;;;;;5055834;28;20110;-60
2023/01/26 01:55:40;;;;;;;20.33;13.27;;;;;;;;;;5056170;28;20021;-59
2023/01/26 01:58:06;;;;;;;23.23;13.50;;;;;;;;;;5056240;28;20577;-58
2023/01/26 02:00:32;;;;;;;17.77;14.20;;;;;;;;;;5056313;28;20025;-59
2023/01/26 02:03:17;;;;;;;18.83;15.33;;;;;;;;;;5056120;28;20366;-58
2023/01/26 02:05:43;;;;;;;16.77;12.50;;;;;;;;;;5055657;28;20033;-59
2023/01/26 02:08:10;;;;;;;16.10;12.03;;;;;;;;;;5055851;28;20032;-57
2023/01/26 02:10:37;;;;;;;14.17;11.87;;;;;;;;;;5055881;28;20025;-59
2023/01/26 02:13:04;;;;;;;20.50;16.63;;;;;;;;;;5055452;28;20374;-59
2023/01/26 02:15:30;;;;;;;24.37;16.47;;;;;;;;;;5055850;28;20024;-59
2023/01/26 02:17:56;;;;;;;18.03;14.13;;;;;;;;;;5055462;28;20021;-60
2023/01/26 02:20:32;;;;;;;19.90;14.97;;;;;;;;;;5055625;28;20375;-59
2023/01/26 02:23:10;;;;;;;21.00;15.07;;;;;;;;;;5055365;28;20069;-59
2023/01/26 02:25:40;;;;;;;24.50;16.47;;;;;;;;;;5055558;28;20033;-59
2023/01/26 02:28:06;;;;;;;24.45;18.10;;;;;;;;;;5055704;28;20021;-59
2023/01/26 02:30:32;;;;;;;19.80;12.33;;;;;;;;;;5054889;28;20390;-60
2023/01/26 02:32:58;;;;;;;27.57;16.20;;;;;;;;;;5055019;28;20382;-59
2023/01/26 02:35:24;;;;;;;23.37;16.03;;;;;;;;;;5055422;28;20092;-59
2023/01/26 02:37:50;;;;;;;24.63;15.77;;;;;;;;;;5055010;28;20059;-59
2023/01/26 02:40:24;;;;;;;20.13;13.07;;;;;;;;;;5055238;28;20017;-60
2023/01/26 02:42:53;;;;;;;19.00;13.77;;;;;;;;;;5055545;28;20033;-59
2023/01/26 02:45:20;;;;;;;17.70;14.23;;;;;;;;;;5055258;28;20025;-59
2023/01/26 02:47:46;;;;;;;20.20;13.63;;;;;;;;;;5054789;28;20029;-59
2023/01/26 02:50:12;;;;;;;17.77;15.53;;;;;;;;;;5054447;28;20561;-59
2023/01/26 02:52:38;;;;;;;21.43;14.27;;;;;;;;;;5054331;28;20481;-59
2023/01/26 02:55:23;;;;;;;16.63;12.60;;;;;;;;;;5055256;28;20112;-59
2023/01/26 02:57:54;;;;;;;20.47;14.57;;;;;;;;;;5055195;28;20375;-59
2023/01/26 03:00:25;;;;;;;15.32;12.63;;;;;;;;;;5054686;28;20086;-60
2023/01/26 03:02:52;;;;;;;19.25;11.55;;;;;;;;;;5054332;28;20049;-60
2023/01/26 03:05:18;;;;;;;17.50;14.13;;;;;;;;;;5054832;28;20028;-59
2023/01/26 03:07:44;;;;;;;18.97;14.07;;;;;;;;;;5054364;28;20013;-59
2023/01/26 03:10:10;;;;;;;22.07;14.90;;;;;;;;;;5054428;28;20025;-59
2023/01/26 03:12:36;;;;;;;22.80;15.10;;;;;;;;;;5054576;28;20029;-60
2023/01/26 03:17:47;;;;;;;21.20;12.43;;;;;;;;;;5054342;28;20032;-60
2023/01/26 03:28:27;;;;;;;18.60;12.80;;;;;;;;;;5054455;28;20032;-59
2023/01/26 03:30:54;;;;;;;16.77;11.73;;;;;;;;;;5054063;28;20029;-60
2023/01/26 03:33:21;;;;;;;13.23;10.07;;;;;;;;;;5053973;28;20473;-59
2023/01/26 03:35:47;;;;;;;17.40;11.23;;;;;;;;;;5054643;28;20021;-59
2023/01/26 03:38:13;;;;;;;19.70;11.03;;;;;;;;;;5054259;28;20047;-59
2023/01/26 03:57:06;;;;;;;16.90;14.07;;;;;;;;;;5053784;28;20430;-59
2023/01/26 03:59:38;;;;;;;16.90;12.70;;;;;;;;;;5053822;28;20021;-59
2023/01/26 04:10:20;;;;;;;16.07;11.07;;;;;;;;;;5053918;28;20575;-59
2023/01/26 04:23:45;;;;;;;13.43;10.10;;;;;;;;;;5053506;28;20549;-59
2023/01/26 04:26:12;;;;;;;15.63;10.47;;;;;;;;;;5053694;28;20025;-59
2023/01/26 04:28:38;;;;;;;11.00;8.53;;;;;;;;;;5053329;28;20048;-59
2023/01/26 04:31:04;;;;;;;15.87;11.77;;;;;;;;;;5053413;28;20482;-59
2023/01/26 04:33:30;;;;;;;15.37;11.77;;;;;;;;;;5053641;28;20107;-59
2023/01/26 04:35:56;;;;;;;13.63;11.53;;;;;;;;;;5054025;28;20021;-59
2023/01/26 04:38:22;;;;;;;10.93;8.97;;;;;;;;;;5054490;28;20032;-59
2023/01/26 04:40:54;;;;;;;17.00;10.90;;;;;;;;;;5053650;28;20539;-59
2023/01/26 04:43:20;;;;;;;13.70;9.83;;;;;;;;;;5053068;28;20539;-59
2023/01/26 04:46:00;;;;;;;10.10;7.87;;;;;;;;;;5053673;28;20025;-59
2023/01/26 04:48:26;;;;;;;15.87;9.30;;;;;;;;;;5053525;28;20489;-59
2023/01/26 04:50:53;;;;;;;11.27;8.03;;;;;;;;;;5053883;28;20036;-59
2023/01/26 04:53:19;;;;;;;13.80;8.20;;;;;;;;;;5053699;28;20064;-59
2023/01/26 04:55:45;;;;;;;13.03;8.20;;;;;;;;;;5053579;28;20025;-59
2023/01/26 04:58:11;;;;;;;9.23;7.47;;;;;;;;;;5053233;28;20024;-57
2023/01/26 05:00:37;;;;;;;17.37;9.63;;;;;;;;;;5053172;28;20025;-57
2023/01/26 05:03:03;;;;;;;14.53;11.10;;;;;;;;;;5053423;28;20090;-58
2023/01/26 05:05:29;;;;;;;10.60;6.80;;;;;;;;;;5054002;28;20063;-57
2023/01/26 05:07:55;;;;;;;9.20;7.33;;;;;;;;;;5053349;28;20453;-58
2023/01/26 05:10:20;;;;;;;12.90;8.40;;;;;;;;;;5053051;28;20071;-58
2023/01/26 05:12:47;;;;;;;12.07;8.43;;;;;;;;;;5054868;28;20139;-57
2023/01/26 05:15:13;;;;;;;16.20;8.53;;;;;;;;;;5056732;28;20481;-58
2023/01/26 05:17:39;;;;;;;10.53;7.73;;;;;;;;;;5056610;28;20115;-58
2023/01/26 05:20:05;;;;;;;10.13;8.20;;;;;;;;;;5056503;28;20033;-57
2023/01/26 05:22:31;;;;;;;23.10;9.70;;;;;;;;;;5056735;28;20078;-58
2023/01/26 05:24:57;;;;;;;7.97;7.13;;;;;;;;;;5057315;28;20420;-57
2023/01/26 05:27:23;;;;;;;12.70;8.17;;;;;;;;;;5056462;28;20158;-57
2023/01/26 05:29:49;;;;;;;12.00;8.23;;;;;;;;;;5055983;28;20033;-58
2023/01/26 05:32:16;;;;;;;11.93;9.07;;;;;;;;;;5056212;28;20041;-58
2023/01/26 05:34:42;;;;;;;10.03;8.40;;;;;;;;;;5056491;28;20032;-58
2023/01/26 05:37:08;;;;;;;8.67;7.80;;;;;;;;;;5056158;28;20383;-58
2023/01/26 05:39:34;;;;;;;16.00;10.00;;;;;;;;;;5056693;28;20029;-57
2023/01/26 05:42:00;;;;;;;7.50;6.73;;;;;;;;;;5056046;28;20493;-58
2023/01/26 05:44:26;;;;;;;10.53;7.27;;;;;;;;;;5056378;28;20021;-58
2023/01/26 05:46:52;;;;;;;15.33;8.73;;;;;;;;;;5055962;28;20108;-58
2023/01/26 05:49:18;;;;;;;7.37;6.63;;;;;;;;;;5056449;28;20029;-58
2023/01/26 05:51:44;;;;;;;9.40;6.73;;;;;;;;;;5055751;28;20074;-58
2023/01/26 05:54:10;;;;;;;11.30;8.17;;;;;;;;;;5056140;28;20052;-58
2023/01/26 05:56:36;;;;;;;16.87;10.57;;;;;;;;;;5055511;28;20032;-58
2023/01/26 05:59:02;;;;;;;8.87;6.97;;;;;;;;;;5055702;28;20120;-58
2023/01/26 06:01:28;;;;;;;12.83;9.13;;;;;;;;;;5055483;28;22296;-57
2023/01/26 06:03:54;;;;;;;14.30;10.67;;;;;;;;;;5056367;28;20029;-57
2023/01/26 06:06:20;;;;;;;9.30;6.83;;;;;;;;;;5055998;28;20104;-57
2023/01/26 06:08:46;;;;;;;7.93;7.10;;;;;;;;;;5055668;28;20025;-58
2023/01/26 06:11:12;;;;;;;6.67;5.83;;;;;;;;;;5055932;28;20409;-58
2023/01/26 06:13:38;;;;;;;8.70;7.13;;;;;;;;;;5055518;28;20441;-58
2023/01/26 06:16:04;;;;;;;7.70;5.87;;;;;;;;;;5055584;28;20526;-58
2023/01/26 06:18:30;;;;;;;7.17;6.47;;;;;;;;;;5055364;28;20029;-58
2023/01/26 06:20:59;;;;;;;9.57;8.53;;;;;;;;;;5055309;28;20025;-58
2023/01/26 06:23:26;;;;;;;13.70;8.57;;;;;;;;;;5055169;28;20054;-58
2023/01/26 06:25:52;;;;;;;10.07;7.23;;;;;;;;;;5055306;28;20036;-58
2023/01/26 06:28:21;;;;;;;10.90;9.43;;;;;;;;;;5055298;28;20059;-57
2023/01/26 06:30:46;;;;;;;12.40;8.33;;;;;;;;;;5055579;28;20048;-58
2023/01/26 06:33:12;;;;;;;11.00;8.63;;;;;;;;;;5055351;28;20029;-57
2023/01/26 06:35:38;;;;;;;7.70;6.90;;;;;;;;;;5055239;28;20087;-57
2023/01/26 06:38:04;;;;;;;8.13;6.67;;;;;;;;;;5055558;28;20021;-58
2023/01/26 06:40:30;;;;;;;10.30;7.57;;;;;;;;;;5055250;28;20351;-58
2023/01/26 06:42:56;;;;;;;17.47;9.70;;;;;;;;;;5054908;28;20493;-57
2023/01/26 06:45:22;;;;;;;9.30;7.43;;;;;;;;;;5055035;28;20047;-57
2023/01/26 06:47:50;;;;;;;18.13;9.23;;;;;;;;;;5054480;28;20033;-58
2023/01/26 06:50:19;;;;;;;10.30;8.77;;;;;;;;;;5054664;28;20021;-58
2023/01/26 06:52:46;;;;;;;10.50;9.50;;;;;;;;;;5054442;28;20540;-58
2023/01/26 06:55:23;;;;;;;12.73;7.93;;;;;;;;;;5055080;28;20021;-58
2023/01/26 06:57:49;;;;;;;11.37;8.23;;;;;;;;;;5054554;28;20028;-58
2023/01/26 07:00:15;;;;;;;9.33;6.33;;;;;;;;;;5054555;28;20094;-58
2023/01/26 07:02:41;;;;;;;11.83;8.47;;;;;;;;;;5054247;28;20049;-58
2023/01/26 07:05:07;;;;;;;13.83;10.43;;;;;;;;;;5054556;28;20473;-58
2023/01/26 07:07:33;;;;;;;6.77;6.10;;;;;;;;;;5054488;28;20029;-58
2023/01/26 07:09:59;;;;;;;16.50;9.73;;;;;;;;;;5054283;28;20060;-58
2023/01/26 07:12:25;;;;;;;13.50;7.53;;;;;;;;;;5054094;28;20056;-58
2023/01/26 07:14:51;;;;;;;13.80;8.77;;;;;;;;;;5054244;28;20025;-58
2023/01/26 07:17:17;;;;;;;12.60;8.93;;;;;;;;;;5054362;28;20059;-58
2023/01/26 07:19:44;;;;;;;8.17;7.37;;;;;;;;;;5054783;28;20029;-58
2023/01/26 07:22:10;;;;;;;10.00;8.00;;;;;;;;;;5054111;28;20063;-58
2023/01/26 07:24:35;;;;;;;8.07;5.20;;;;;;;;;;5054803;28;20025;-58
2023/01/26 07:27:01;;;;;;;14.37;7.50;;;;;;;;;;5054113;28;20028;-58
2023/01/26 07:29:27;;;;;;;10.07;9.00;;;;;;;;;;5054025;28;20112;-58
2023/01/26 07:31:53;;;;;;;11.27;8.83;;;;;;;;;;5053805;28;20036;-58
2023/01/26 07:34:19;;;;;;;9.53;7.53;;;;;;;;;;5053774;28;20040;-58
2023/01/26 07:36:45;;;;;;;8.77;7.10;;;;;;;;;;5053701;28;20063;-58
2023/01/26 07:39:11;;;;;;;15.30;10.03;;;;;;;;;;5053793;28;20116;-58
2023/01/26 07:41:37;;;;;;;11.27;7.87;;;;;;;;;;5054234;28;20047;-58
2023/01/26 07:44:06;;;;;;;17.70;11.13;;;;;;;;;;5053894;28;20028;-58
2023/01/26 07:46:32;;;;;;;9.43;8.53;;;;;;;;;;5054652;28;20394;-58
2023/01/26 07:48:58;;;;;;;10.27;9.07;;;;;;;;;;5052363;28;20032;-58
2023/01/26 07:51:24;;;;;;;10.40;8.63;;;;;;;;;;5053514;28;20032;-58
2023/01/26 07:53:50;;;;;;;9.43;8.27;;;;;;;;;;5054260;28;20067;-58
2023/01/26 07:56:19;;;;;;;6.57;4.87;;;;;;;;;;5054107;28;20021;-58
2023/01/26 07:58:48;;;;;;;14.77;9.73;;;;;;;;;;5053735;28;20033;-58
2023/01/26 08:01:14;;;;;;;17.30;8.53;;;;;;;;;;5053444;28;20426;-60
2023/01/26 08:03:41;;;;;;;8.90;7.20;;;;;;;;;;5054007;28;20037;-58
2023/01/26 08:06:07;;;;;;;14.73;7.27;;;;;;;;;;5053923;28;20060;-58
2023/01/26 08:08:33;;;;;;;9.23;7.20;;;;;;;;;;5053533;28;20058;-58
2023/01/26 08:11:00;;;;;;;8.53;4.60;;;;;;;;;;5053245;28;20459;-58
2023/01/26 08:13:27;;;;;;;7.60;6.50;;;;;;;;;;5053432;28;20104;-58
2023/01/26 08:15:53;;;;;;;8.13;5.63;;;;;;;;;;5053856;28;20039;-58
2023/01/26 08:18:19;;;;;;;12.20;7.53;;;;;;;;;;5053813;28;20082;-57
2023/01/26 08:20:52;;;;;;;16.87;10.70;;;;;;;;;;5053334;28;20471;-58
2023/01/26 08:23:18;;;;;;;13.40;9.93;;;;;;;;;;5053744;28;20416;-58
2023/01/26 08:25:44;;;;;;;15.97;12.07;;;;;;;;;;5054107;28;20108;-58
2023/01/26 08:28:10;;;;;;;10.50;9.13;;;;;;;;;;5053489;28;20021;-58
2023/01/26 08:30:36;;;;;;;11.87;10.63;;;;;;;;;;5053621;28;20033;-58
2023/01/26 08:33:02;;;;;;;8.97;7.67;;;;;;;;;;5053414;28;20037;-58
2023/01/26 08:35:28;;;;;;;11.57;7.83;;;;;;;;;;5053233;28;20033;-58
2023/01/26 08:37:55;;;;;;;14.93;9.47;;;;;;;;;;5053587;28;20028;-59
2023/01/26 08:40:21;;;;;;;10.37;8.00;;;;;;;;;;5053639;28;20035;-59
2023/01/26 08:42:46;;;;;;;13.37;8.37;;;;;;;;;;5053355;28;20025;-58
2023/01/26 08:45:12;;;;;;;13.87;9.50;;;;;;;;;;5053694;28;20025;-58
2023/01/26 08:47:38;;;;;;;11.30;8.90;;;;;;;;;;5053798;28;20025;-58
2023/01/26 08:50:05;;;;;;;11.10;6.77;;;;;;;;;;5057721;28;20029;-58
2023/01/26 08:52:30;;;;;;;15.30;9.27;;;;;;;;;;5057016;28;20060;-59
2023/01/26 08:54:56;;;;;;;9.87;7.27;;;;;;;;;;5057277;28;20074;-58
2023/01/26 08:57:22;;;;;;;10.03;7.37;;;;;;;;;;5057096;28;20413;-59
2023/01/26 08:59:48;;;;;;;7.93;6.17;;;;;;;;;;5057518;28;20032;-58
2023/01/26 09:02:14;;;;;;;8.67;7.27;;;;;;;;;;5057063;28;20064;-58
2023/01/26 09:04:40;;;;;;;6.37;5.60;;;;;;;;;;5056575;28;20021;-58
2023/01/26 09:07:06;;;;;;;9.57;6.60;;;;;;;;;;5056717;28;20036;-58
2023/01/26 09:09:32;;;;;;;9.63;8.17;;;;;;;;;;5056923;28;20067;-58
2023/01/26 09:11:58;;;;;;;9.00;6.97;;;;;;;;;;5056511;28;20041;-59
2023/01/26 09:14:24;;;;;;;10.57;7.93;;;;;;;;;;5057183;28;20028;-59
2023/01/26 09:16:50;;;;;;;7.67;6.60;;;;;;;;;;5057132;28;20021;-58
2023/01/26 09:19:16;;;;;;;11.10;6.20;;;;;;;;;;5056519;28;20356;-60
2023/01/26 09:21:42;;;;;;;8.50;7.07;;;;;;;;;;5057152;28;20090;-59
2023/01/26 09:24:08;;;;;;;7.97;5.93;;;;;;;;;;5056006;28;20036;-58
2023/01/26 09:26:34;;;;;;;9.23;7.80;;;;;;;;;;5056405;28;20118;-57
2023/01/26 09:29:00;;;;;;;7.57;5.83;;;;;;;;;;5056242;28;20049;-58
2023/01/26 09:31:26;;;;;;;14.23;7.07;;;;;;;;;;5056161;28;20029;-58
2023/01/26 09:33:52;;;;;;;10.63;6.90;;;;;;;;;;5056135;28;20102;-57
2023/01/26 09:36:18;;;;;;;6.57;5.87;;;;;;;;;;5056717;28;20029;-58
2023/01/26 09:38:44;;;;;;;10.30;7.53;;;;;;;;;;5055932;28;20029;-58
2023/01/26 09:41:10;;;;;;;14.17;7.53;;;;;;;;;;5055804;28;20040;-57
2023/01/26 09:43:40;;;;;;;7.03;5.23;;;;;;;;;;5055266;28;20040;-58
2023/01/26 09:46:26;;;;;;;8.65;6.97;;;;;;;;;;5056376;28;20071;-58
2023/01/26 09:49:02;;;;;;;9.40;6.10;;;;;;;;;;5056336;28;20036;-58
2023/01/26 09:51:31;;;;;;;12.60;7.43;;;;;;;;;;5056473;28;20036;-58
2023/01/26 09:53:58;;;;;;;14.63;7.23;;;;;;;;;;5055853;28;20367;-58
2023/01/26 09:56:27;;;;;;;7.80;7.00;;;;;;;;;;5055970;28;20032;-58
2023/01/26 09:59:00;;;;;;;7.10;5.17;;;;;;;;;;5055430;28;20032;-58
2023/01/26 10:01:31;;;;;;;7.17;5.07;;;;;;;;;;5055921;28;20028;-58
2023/01/26 10:03:57;;;;;;;;;;;;;;;;;;5056788;28;20036;-58
2023/01/26 10:06:27;;;;;;;21.30;7.60;;;;;;;;;;5056292;28;19905;-59
2023/01/26 10:08:58;;;;;;;10.47;6.20;;;;;;;;;;5055992;28;20021;-58
2023/01/26 10:11:27;;;;;;;7.88;5.90;;;;;;;;;;5056369;28;20032;-58
2023/01/26 10:14:07;;;;;;;11.97;5.50;;;;;;;;;;5055455;28;20075;-57
2023/01/26 10:16:33;;;;;;;7.90;5.40;;;;;;;;;;5055827;28;20056;-58
2023/01/26 10:19:05;;;;;;;10.77;6.03;;;;;;;;;;5055604;28;20028;-58
2023/01/26 10:21:34;;;;;;;7.80;6.03;;;;;;;;;;5055501;28;20355;-57
2023/01/26 10:24:01;;;;;;;9.90;5.87;;;;;;;;;;5055943;28;20052;-58
2023/01/26 10:26:30;;;;;;;8.90;6.03;;;;;;;;;;5055901;28;20535;-58
2023/01/26 10:28:56;;;;;;;7.63;6.27;;;;;;;;;;5055094;28;20474;-56
2023/01/26 10:31:24;;;;;;;8.77;7.37;;;;;;;;;;5055708;28;20455;-57
2023/01/26 10:33:58;;;;;;;9.27;6.93;;;;;;;;;;5055078;28;20028;-58
2023/01/26 10:36:24;;;;;;;10.17;7.00;;;;;;;;;;5055704;28;20530;-57
2023/01/26 10:38:51;;;;;;;7.40;5.60;;;;;;;;;;5055653;28;20021;-58
2023/01/26 10:41:25;;;;;;;10.17;7.37;;;;;;;;;;5055512;28;20040;-58
2023/01/26 10:43:53;;;;;;;8.93;6.97;;;;;;;;;;5055437;28;20028;-57
2023/01/26 10:46:24;;;;;;;9.30;5.13;;;;;;;;;;5054958;28;20467;-57
2023/01/26 10:48:54;;;;;;;8.82;5.80;;;;;;;;;;5054972;28;20064;-58
2023/01/26 10:51:25;;;;;;;9.07;5.38;;;;;;;;;;5054844;28;20024;-58
2023/01/26 10:53:51;;;;;;;;;;;;;;;;;;5055164;28;20029;-57
2023/01/26 10:56:17;;;;;;;4.80;3.33;;;;;;;;;;5055092;28;19905;-58
2023/01/26 10:58:45;;;;;;;5.40;3.33;;;;;;;;;;5055225;28;20021;-57
2023/01/26 11:01:14;;;;;;;6.93;5.17;;;;;;;;;;5054677;28;20021;-58
2023/01/26 11:03:41;;;;;;;6.07;4.70;;;;;;;;;;5055414;28;20035;-58
2023/01/26 11:06:14;;;;;;;5.33;4.83;;;;;;;;;;5054790;28;20078;-58
2023/01/26 11:08:41;;;;;;;4.00;3.60;;;;;;;;;;5054396;28;20029;-57
2023/01/26 11:11:21;;;;;;;7.20;4.80;;;;;;;;;;5054206;28;20406;-58
2023/01/26 11:13:47;;;;;;;7.43;4.78;;;;;;;;;;5054664;28;20340;-57
2023/01/26 11:16:20;;;;;;;6.17;5.07;;;;;;;;;;5054997;28;20028;-57
2023/01/26 11:19:04;;;;;;;6.57;4.40;;;;;;;;;;5054586;28;20029;-57
2023/01/26 11:21:33;;;;;;;4.87;4.20;;;;;;;;;;5054245;28;20025;-57
2023/01/26 11:24:03;;;;;;;6.40;4.93;;;;;;;;;;5053953;28;20029;-58
2023/01/26 11:26:41;;;;;;;4.43;3.25;;;;;;;;;;5054816;28;20112;-58
2023/01/26 11:29:20;;;;;;;10.37;7.10;;;;;;;;;;5054444;28;20060;-57
2023/01/26 11:32:01;;;;;;;11.50;6.17;;;;;;;;;;5054193;28;20053;-58
2023/01/26 11:34:36;;;;;;;4.00;3.60;;;;;;;;;;5054194;28;20025;-58
2023/01/26 11:37:21;;;;;;;11.50;8.03;;;;;;;;;;5053979;28;20025;-57
2023/01/26 11:39:53;;;;;;;7.23;6.53;;;;;;;;;;5054309;28;20031;-58
2023/01/26 11:42:31;;;;;;;11.17;6.07;;;;;;;;;;5053917;28;20028;-57
2023/01/26 11:45:16;;;;;;;9.97;7.63;;;;;;;;;;5054670;28;20029;-58
2023/01/26 11:48:01;;;;;;;7.67;5.00;;;;;;;;;;5053903;28;20052;-57
2023/01/26 11:50:26;;;;;;;13.20;6.90;;;;;;;;;;5054353;28;20025;-57
2023/01/26 11:53:01;;;;;;;7.00;6.33;;;;;;;;;;5053317;28;20477;-57
2023/01/26 11:55:45;;;;;;;7.07;5.10;;;;;;;;;;5054444;28;20031;-57
2023/01/26 11:58:29;;;;;;;16.90;7.57;;;;;;;;;;5054496;28;20443;-57
2023/01/26 12:01:00;;;;;;;8.80;7.57;;;;;;;;;;5053789;28;20459;-57
2023/01/26 12:03:38;;;;;;;8.35;6.50;;;;;;;;;;5053842;28;20452;-59
2023/01/26 12:06:12;;;;;;;12.17;6.93;;;;;;;;;;5054337;28;20048;-58
2023/01/26 12:08:42;;;;;;;7.90;6.37;;;;;;;;;;5053289;28;20025;-58
2023/01/26 12:11:27;;;;;;;;;;;;;;;;;;5053947;28;20025;-58
2023/01/26 12:14:05;;;;;;;5.30;3.13;;;;;;;;;;5053231;28;20007;-57
2023/01/26 12:16:37;;;;;;;9.37;7.07;;;;;;;;;;5053756;28;20452;-58
2023/01/26 12:19:09;;;;;;;7.20;5.87;;;;;;;;;;5053313;28;20021;-58
2023/01/26 12:21:36;;;;;;;8.80;5.40;;;;;;;;;;5055899;28;20031;-58
2023/01/26 12:24:04;;;;;;;8.50;6.37;;;;;;;;;;5058217;28;20150;-58
2023/01/26 12:26:36;;;;;;;6.00;4.40;;;;;;;;;;5058166;28;20469;-57
2023/01/26 12:29:21;;;;;;;9.97;6.53;;;;;;;;;;5057457;28;20120;-58
2023/01/26 12:32:21;;;;;;;7.27;6.00;;;;;;;;;;5057448;28;20367;-58
2023/01/26 12:34:47;;;;;;;6.90;6.22;;;;;;;;;;5045360;28;20029;-58
2023/01/26 12:37:16;;;;;;;7.40;5.30;;;;;;;;;;5057971;28;20025;-57
2023/01/26 12:39:44;;;;;;;6.23;5.20;;;;;;;;;;5057953;28;20082;-57
2023/01/26 12:42:29;;;;;;;15.93;5.67;;;;;;;;;;5057233;28;20128;-58
2023/01/26 12:45:00;;;;;;;6.50;4.90;;;;;;;;;;5057316;28;20021;-57
2023/01/26 12:47:26;;;;;;;7.70;6.23;;;;;;;;;;5057071;28;20035;-57
2023/01/26 12:49:58;;;;;;;9.97;7.10;;;;;;;;;;5057383;28;20060;-56
2023/01/26 12:52:28;;;;;;;6.53;5.70;;;;;;;;;;5057044;28;20071;-57
2023/01/26 12:55:06;;;;;;;8.30;5.33;;;;;;;;;;5057336;28;20029;-57
2023/01/26 12:57:37;;;;;;;8.20;6.50;;;;;;;;;;5056984;28;20102;-58
2023/01/26 13:00:08;;;;;;;9.83;8.10;;;;;;;;;;5056944;28;20068;-58
2023/01/26 13:02:34;;;;;;;8.20;6.72;;;;;;;;;;5056593;28;20052;-57
2023/01/26 13:05:01;;;;;;;10.93;6.80;;;;;;;;;;5056445;28;20557;-57
2023/01/26 13:07:32;;;;;;;9.40;6.53;;;;;;;;;;5057349;28;20166;-57
2023/01/26 13:10:08;;;;;;;6.57;5.80;;;;;;;;;;5056663;28;20025;-56
2023/01/26 13:12:47;;;;;;;9.93;6.27;;;;;;;;;;5056607;28;20090;-57
2023/01/26 13:15:14;;;;;;;10.93;6.70;;;;;;;;;;5057097;28;20021;-58
2023/01/26 13:17:42;;;;;;;9.90;7.73;;;;;;;;;;5056614;28;20026;-60
2023/01/26 13:20:24;;;;;;;9.43;5.57;;;;;;;;;;5056634;28;20025;-57
2023/01/26 13:22:51;;;;;;;12.37;7.13;;;;;;;;;;5056331;28;20467;-57
2023/01/26 13:25:18;;;;;;;6.53;5.83;;;;;;;;;;5057018;28;20107;-57
2023/01/26 13:27:46;;;;;;;15.10;8.83;;;;;;;;;;5056781;28;20100;-59
2023/01/26 13:30:21;;;;;;;17.07;8.13;;;;;;;;;;5056960;28;20439;-57
2023/01/26 13:32:47;;;;;;;11.03;7.33;;;;;;;;;;5055561;28;20036;-57
2023/01/26 13:35:14;;;;;;;10.47;7.87;;;;;;;;;;5056410;28;20025;-59
2023/01/26 13:37:52;;;;;;;11.43;7.77;;;;;;;;;;5056300;28;20028;-59
2023/01/26 13:40:23;;;;;;;13.20;8.57;;;;;;;;;;5056517;28;20114;-59
2023/01/26 13:43:08;;;;;;;12.63;8.00;;;;;;;;;;5056706;28;20029;-58
2023/01/26 13:45:39;;;;;;;10.80;8.03;;;;;;;;;;5056078;28;20028;-59
2023/01/26 13:48:11;;;;;;;16.07;9.93;;;;;;;;;;5054819;28;20467;-58
2023/01/26 13:50:37;;;;;;;9.90;7.13;;;;;;;;;;5056643;28;20032;-59
2023/01/26 13:53:23;;;;;;;13.20;9.23;;;;;;;;;;5056544;28;20029;-59
2023/01/26 13:55:51;;;;;;;9.50;8.30;;;;;;;;;;5055994;28;20069;-58
2023/01/26 13:58:18;;;;;;;11.17;8.13;;;;;;;;;;5055926;28;20025;-59
2023/01/26 14:01:00;;;;;;;13.90;8.33;;;;;;;;;;5055758;28;20025;-58
2023/01/26 14:03:26;;;;;;;7.47;6.77;;;;;;;;;;5056312;28;20103;-59
2023/01/26 14:05:54;;;;;;;12.63;8.37;;;;;;;;;;5056312;28;20036;-59
2023/01/26 14:08:21;;;;;;;10.97;6.77;;;;;;;;;;5055859;28;20466;-60
2023/01/26 14:10:47;;;;;;;11.97;8.97;;;;;;;;;;5056163;28;20130;-59
2023/01/26 14:13:21;;;;;;;11.20;7.53;;;;;;;;;;5055497;28;20036;-59
2023/01/26 14:15:55;;;;;;;11.07;8.50;;;;;;;;;;5055726;28;20083;-59
2023/01/26 14:18:21;;;;;;;10.13;8.23;;;;;;;;;;5055404;28;20025;-59
2023/01/26 14:20:47;;;;;;;7.63;6.73;;;;;;;;;;5056229;28;20047;-59
2023/01/26 14:23:14;;;;;;;9.97;8.50;;;;;;;;;;5055678;28;20033;-59
2023/01/26 14:25:45;;;;;;;17.10;10.27;;;;;;;;;;5055986;28;20116;-59
2023/01/26 14:28:15;;;;;;;15.27;9.93;;;;;;;;;;5055584;28;20029;-59
2023/01/26 14:30:41;;;;;;;14.63;8.90;;;;;;;;;;5055221;28;20104;-59
2023/01/26 14:33:14;;;;;;;15.20;9.10;;;;;;;;;;5055105;28;20537;-58
2023/01/26 14:35:41;;;;;;;15.20;7.37;;;;;;;;;;5055657;28;20032;-59
2023/01/26 14:38:10;;;;;;;11.60;10.07;;;;;;;;;;5055132;28;20386;-59
2023/01/26 14:40:43;;;;;;;11.40;8.90;;;;;;;;;;5055293;28;20036;-59
2023/01/26 14:43:09;;;;;;;7.40;6.67;;;;;;;;;;5054697;28;20467;-58
2023/01/26 14:45:36;;;;;;;10.70;8.13;;;;;;;;;;5054405;28;20033;-59
2023/01/26 14:48:06;;;;;;;11.97;8.30;;;;;;;;;;5054744;28;20405;-59
2023/01/26 14:50:32;;;;;;;13.63;11.07;;;;;;;;;;5054685;28;20021;-58
2023/01/26 14:52:58;;;;;;;11.43;9.03;;;;;;;;;;5054760;28;20033;-59
2023/01/26 14:55:29;;;;;;;14.67;8.47;;;;;;;;;;5054628;28;20029;-58
2023/01/26 14:57:56;;;;;;;12.82;10.05;;;;;;;;;;5054504;28;20151;-58
2023/01/26 15:00:25;;;;;;;13.40;6.17;;;;;;;;;;5054253;28;20053;-59
2023/01/26 15:02:52;;;;;;;9.30;8.27;;;;;;;;;;5054495;28;20060;-59
2023/01/26 15:05:19;;;;;;;10.93;7.77;;;;;;;;;;5054743;28;20029;-58
2023/01/26 15:07:59;;;;;;;9.50;8.57;;;;;;;;;;5054231;28;20045;-58
2023/01/26 15:10:25;;;;;;;16.20;11.18;;;;;;;;;;5054394;28;20021;-59
2023/01/26 15:13:03;;;;;;;12.57;9.13;;;;;;;;;;5054465;28;20029;-58
2023/01/26 15:15:30;;;;;;;13.03;8.00;;;;;;;;;;5054711;28;20047;-58
2023/01/26 15:18:02;;;;;;;13.27;8.13;;;;;;;;;;5054283;28;20020;-58
2023/01/26 15:20:27;;;;;;;9.33;7.57;;;;;;;;;;5054095;28;20090;-59
2023/01/26 15:22:54;;;;;;;7.90;5.87;;;;;;;;;;5054451;28;20447;-58
2023/01/26 15:25:24;;;;;;;17.17;10.67;;;;;;;;;;5054932;28;20029;-58